createdAt,value
2019-01-20T00:07:15.617Z,5.60
2019-01-20T00:17:21.046Z,4.10
2019-01-20T00:27:26.767Z,5.80
2019-01-20T00:37:32.463Z,3.87
2019-01-20T00:47:40.057Z,3.50
2019-01-20T00:57:46.126Z,3.40
2019-01-20T01:07:52.539Z,3.37
2019-01-20T01:17:58.190Z,3.57
2019-01-20T01:28:03.609Z,4.27
2019-01-20T01:38:09.002Z,3.57
2019-01-20T01:48:14.419Z,3.10
2019-01-20T01:58:19.870Z,3.43
2019-01-20T02:08:25.370Z,2.97
2019-01-20T02:18:30.816Z,3.10
2019-01-20T02:28:36.260Z,2.97
2019-01-20T02:38:41.723Z,2.93
2019-01-20T02:48:48.593Z,2.83
2019-01-20T02:58:54.005Z,2.80
2019-01-20T03:08:59.484Z,3.10
2019-01-20T03:19:05.504Z,2.80
2019-01-20T03:29:11.165Z,2.70
2019-01-20T03:39:16.512Z,2.70
2019-01-20T03:49:23.048Z,2.70
2019-01-20T03:59:28.425Z,2.57
2019-01-20T04:09:34.205Z,2.63
2019-01-20T04:19:39.782Z,2.50
2019-01-20T04:29:45.110Z,2.50
2019-01-20T04:39:50.916Z,3.23
2019-01-20T04:49:56.357Z,2.40
2019-01-20T05:00:01.714Z,2.90
2019-01-20T05:10:09.263Z,2.60
2019-01-20T05:20:14.921Z,2.53
2019-01-20T05:30:27.262Z,2.50
2019-01-20T05:40:32.688Z,2.63
2019-01-20T05:50:38.301Z,2.93
2019-01-20T06:00:43.728Z,2.47
2019-01-20T06:10:49.087Z,2.63
2019-01-20T06:20:54.486Z,2.60
2019-01-20T06:31:02.251Z,2.53
2019-01-20T06:41:07.708Z,2.60
2019-01-20T06:51:13.176Z,2.50
2019-01-20T07:01:18.502Z,2.87
2019-01-20T07:11:24.074Z,2.47
2019-01-20T07:21:29.484Z,2.57
2019-01-20T07:31:37.156Z,2.40
2019-01-20T07:41:42.545Z,2.80
2019-01-20T07:51:49.852Z,2.53
2019-01-20T08:01:55.273Z,2.70
2019-01-20T08:12:02.347Z,2.60
2019-01-20T08:22:08.109Z,2.57
2019-01-20T08:32:13.506Z,2.73
2019-01-20T08:42:18.923Z,2.50
2019-01-20T08:52:24.843Z,2.60
2019-01-20T09:02:30.286Z,2.50
2019-01-20T09:12:36.407Z,2.53
2019-01-20T09:22:44.682Z,2.80
2019-01-20T09:32:50.074Z,2.83
2019-01-20T09:42:55.517Z,3.10
2019-01-20T09:53:01.882Z,3.43
2019-01-20T10:03:07.600Z,5.77
2019-01-20T10:13:13.021Z,4.93
2019-01-20T10:23:21.087Z,6.00
2019-01-20T10:33:26.460Z,6.43
2019-01-20T10:43:33.631Z,14.60
2019-01-20T10:53:39.364Z,11.33
2019-01-20T11:03:44.984Z,12.13
2019-01-20T11:13:52.523Z,13.37
2019-01-20T11:23:59.657Z,11.27
2019-01-20T11:34:05.245Z,9.90
2019-01-20T11:44:16.824Z,8.87
2019-01-20T11:54:18.000Z,9.03
2019-01-20T12:04:26.013Z,14.93
2019-01-20T12:14:31.486Z,12.33
2019-01-20T12:24:38.244Z,8.33
2019-01-20T12:34:44.571Z,7.77
2019-01-20T12:44:51.668Z,9.57
2019-01-20T12:54:57.244Z,12.70
2019-01-20T13:05:03.594Z,8.13
2019-01-20T13:15:13.942Z,8.80
2019-01-20T13:25:25.528Z,12.17
2019-01-20T13:35:31.775Z,8.67
2019-01-20T13:45:38.785Z,22.20
2019-01-20T13:55:46.638Z,19.30
2019-01-20T14:05:52.315Z,21.53
2019-01-20T14:15:57.726Z,20.30
2019-01-20T14:26:03.174Z,22.27
2019-01-20T14:36:08.681Z,16.57
2019-01-20T14:46:14.103Z,19.77
2019-01-20T14:56:19.631Z,15.33
2019-01-20T15:06:25.192Z,21.93
2019-01-20T15:16:30.685Z,19.40
2019-01-20T15:26:36.073Z,15.70
2019-01-20T15:36:41.476Z,14.63
2019-01-20T15:46:46.968Z,14.03
2019-01-20T15:56:52.545Z,14.87
2019-01-20T16:06:58.077Z,14.33
2019-01-20T16:17:03.785Z,17.33
2019-01-20T16:27:09.524Z,24.87
2019-01-20T16:37:15.018Z,16.23
2019-01-20T16:47:20.460Z,16.90
2019-01-20T16:57:26.070Z,19.20
2019-01-20T17:07:31.532Z,13.20
2019-01-20T17:17:37.040Z,14.33
2019-01-20T17:27:42.660Z,13.03
2019-01-20T17:37:48.120Z,14.67
2019-01-20T17:47:53.696Z,14.17
2019-01-20T17:57:59.435Z,14.97
2019-01-20T18:08:05.143Z,12.20
2019-01-20T18:18:13.235Z,11.03
2019-01-20T18:28:18.714Z,11.63
2019-01-20T18:38:24.134Z,10.50
2019-01-20T18:48:30.488Z,9.20
2019-01-20T18:58:35.955Z,11.80
2019-01-20T19:08:41.457Z,9.53
2019-01-20T19:18:46.896Z,9.03
2019-01-20T19:28:52.368Z,8.77
2019-01-20T19:38:58.225Z,9.10
2019-01-20T19:49:03.606Z,8.60
2019-01-20T19:59:09.162Z,8.87
2019-01-20T20:09:14.586Z,8.07
2019-01-20T20:19:20.137Z,8.87
2019-01-20T20:29:25.679Z,8.07
2019-01-20T20:39:31.080Z,7.87
2019-01-20T20:49:36.448Z,8.07
2019-01-20T20:59:42.046Z,7.60
2019-01-20T21:09:47.552Z,7.50
2019-01-20T21:19:53.033Z,7.80
2019-01-20T21:29:58.541Z,7.37
2019-01-20T21:40:04.248Z,7.03
2019-01-20T21:50:20.856Z,7.23
2019-01-20T22:00:28.224Z,6.93
2019-01-20T22:10:33.674Z,7.00
2019-01-20T22:20:39.071Z,7.13
2019-01-20T22:30:44.509Z,6.93
2019-01-20T22:40:49.939Z,7.40
2019-01-20T22:50:55.710Z,6.30
2019-01-20T23:01:10.916Z,7.27
2019-01-20T23:11:16.270Z,6.70
2019-01-20T23:21:21.740Z,6.33
2019-01-20T23:31:27.207Z,6.40
2019-01-20T23:41:32.656Z,6.20
2019-01-20T23:51:38.153Z,6.63
